sensor_id;sensor_type;location;lat;lon;timestamp;pressure;altitude;pressure_sealevel;temperature;humidity
39411;BME280;26579;43.238;23.124;2023-03-18T00:00:41;97453.91;;;5.58;62.85
39411;BME280;26579;43.238;23.124;2023-03-18T00:03:07;97438.69;;;5.53;62.98
39411;BME280;26579;43.238;23.124;2023-03-18T00:05:33;97444.50;;;5.57;62.79
39411;BME280;26579;43.238;23.124;2023-03-18T00:07:59;97441.00;;;5.58;62.75
39411;BME280;26579;43.238;23.124;2023-03-18T00:10:25;97441.28;;;5.53;62.98
39411;BME280;26579;43.238;23.124;2023-03-18T00:12:51;97439.78;;;5.65;62.64
39411;BME280;26579;43.238;23.124;2023-03-18T00:15:16;97439.84;;;5.63;62.72
39411;BME280;26579;43.238;23.124;2023-03-18T00:17:42;97431.25;;;5.63;62.72
39411;BME280;26579;43.238;23.124;2023-03-18T00:20:09;97429.09;;;5.71;62.38
39411;BME280;26579;43.238;23.124;2023-03-18T00:22:36;97412.34;;;5.62;62.37
39411;BME280;26579;43.238;23.124;2023-03-18T00:25:03;97413.53;;;5.57;62.35
39411;BME280;26579;43.238;23.124;2023-03-18T00:27:30;97411.34;;;5.49;62.55
39411;BME280;26579;43.238;23.124;2023-03-18T00:29:55;97418.25;;;5.49;62.91
39411;BME280;26579;43.238;23.124;2023-03-18T00:32:22;97418.09;;;5.36;62.99
39411;BME280;26579;43.238;23.124;2023-03-18T00:34:47;97414.41;;;5.24;63.71
39411;BME280;26579;43.238;23.124;2023-03-18T00:37:13;97405.41;;;5.15;63.70
39411;BME280;26579;43.238;23.124;2023-03-18T00:39:39;97409.09;;;5.27;62.63
39411;BME280;26579;43.238;23.124;2023-03-18T00:42:04;97408.41;;;5.24;62.83
39411;BME280;26579;43.238;23.124;2023-03-18T00:44:30;97389.97;;;5.14;62.83
39411;BME280;26579;43.238;23.124;2023-03-18T00:46:56;97388.50;;;5.10;62.83
39411;BME280;26579;43.238;23.124;2023-03-18T00:49:21;97402.66;;;5.18;62.20
39411;BME280;26579;43.238;23.124;2023-03-18T00:51:47;97396.84;;;5.15;62.67
39411;BME280;26579;43.238;23.124;2023-03-18T00:54:13;97395.63;;;5.05;62.24
39411;BME280;26579;43.238;23.124;2023-03-18T00:56:39;97392.13;;;5.06;62.94
39411;BME280;26579;43.238;23.124;2023-03-18T00:59:06;97375.38;;;4.97;62.50
39411;BME280;26579;43.238;23.124;2023-03-18T01:01:33;97395.47;;;5.08;62.14
39411;BME280;26579;43.238;23.124;2023-03-18T01:04:00;97392.13;;;5.06;61.63
39411;BME280;26579;43.238;23.124;2023-03-18T01:06:30;97397.28;;;5.06;61.17
39411;BME280;26579;43.238;23.124;2023-03-18T01:08:57;97376.31;;;4.96;61.14
39411;BME280;26579;43.238;23.124;2023-03-18T01:11:23;97388.88;;;5.02;61.03
39411;BME280;26579;43.238;23.124;2023-03-18T01:13:50;97393.06;;;5.05;61.00
39411;BME280;26579;43.238;23.124;2023-03-18T01:16:16;97387.56;;;4.95;61.09
39411;BME280;26579;43.238;23.124;2023-03-18T01:18:42;97374.81;;;4.92;60.72
39411;BME280;26579;43.238;23.124;2023-03-18T01:21:09;97371.47;;;4.90;60.58
39411;BME280;26579;43.238;23.124;2023-03-18T01:23:40;97362.94;;;4.72;60.57
39411;BME280;26579;43.238;23.124;2023-03-18T01:26:07;97378.91;;;4.79;61.04
39411;BME280;26579;43.238;23.124;2023-03-18T01:28:33;97374.44;;;4.82;60.66
39411;BME280;26579;43.238;23.124;2023-03-18T01:31:00;97363.53;;;4.77;60.26
39411;BME280;26579;43.238;23.124;2023-03-18T01:33:27;97374.28;;;4.85;60.06
39411;BME280;26579;43.238;23.124;2023-03-18T01:35:57;97375.03;;;4.87;59.53
39411;BME280;26579;43.238;23.124;2023-03-18T01:38:27;97370.53;;;4.91;59.82
39411;BME280;26579;43.238;23.124;2023-03-18T01:40:53;97367.63;;;4.81;59.44
39411;BME280;26579;43.238;23.124;2023-03-18T01:43:22;97369.09;;;4.85;59.53
39411;BME280;26579;43.238;23.124;2023-03-18T01:45:54;97369.94;;;4.86;59.51
39411;BME280;26579;43.238;23.124;2023-03-18T01:48:24;97357.97;;;4.85;59.38
39411;BME280;26579;43.238;23.124;2023-03-18T01:51:13;97362.13;;;4.87;59.53
39411;BME280;26579;43.238;23.124;2023-03-18T01:53:41;97353.28;;;4.75;59.91
39411;BME280;26579;43.238;23.124;2023-03-18T01:56:09;97346.91;;;4.65;59.83
39411;BME280;26579;43.238;23.124;2023-03-18T01:58:40;97359.69;;;4.68;59.89
39411;BME280;26579;43.238;23.124;2023-03-18T02:01:27;97374.75;;;4.76;59.78
39411;BME280;26579;43.238;23.124;2023-03-18T02:03:56;97381.72;;;4.74;59.68
39411;BME280;26579;43.238;23.124;2023-03-18T02:06:23;97370.22;;;4.64;59.88
39411;BME280;26579;43.238;23.124;2023-03-18T02:08:56;97355.53;;;4.48;60.38
39411;BME280;26579;43.238;23.124;2023-03-18T02:11:22;97372.66;;;4.49;60.54
39411;BME280;26579;43.238;23.124;2023-03-18T02:13:49;97370.44;;;4.59;59.23
39411;BME280;26579;43.238;23.124;2023-03-18T02:16:25;97373.31;;;4.70;58.79
39411;BME280;26579;43.238;23.124;2023-03-18T02:18:58;97367.69;;;4.80;57.95
39411;BME280;26579;43.238;23.124;2023-03-18T02:21:48;97377.00;;;4.82;58.49
39411;BME280;26579;43.238;23.124;2023-03-18T02:27:20;97381.06;;;4.70;59.41
39411;BME280;26579;43.238;23.124;2023-03-18T02:29:47;97383.13;;;4.64;59.90
39411;BME280;26579;43.238;23.124;2023-03-18T02:32:17;97387.69;;;4.59;60.18
39411;BME280;26579;43.238;23.124;2023-03-18T02:34:44;97387.78;;;4.57;60.13
39411;BME280;26579;43.238;23.124;2023-03-18T02:37:11;97379.63;;;4.47;60.67
39411;BME280;26579;43.238;23.124;2023-03-18T02:39:38;97378.50;;;4.36;61.09
39411;BME280;26579;43.238;23.124;2023-03-18T02:42:04;97390.34;;;4.57;59.44
39411;BME280;26579;43.238;23.124;2023-03-18T02:44:31;97384.03;;;4.63;58.77
39411;BME280;26579;43.238;23.124;2023-03-18T02:47:19;97385.03;;;4.60;59.59
39411;BME280;26579;43.238;23.124;2023-03-18T02:49:46;97384.91;;;4.46;60.26
39411;BME280;26579;43.238;23.124;2023-03-18T02:52:13;97390.25;;;4.41;61.01
39411;BME280;26579;43.238;23.124;2023-03-18T02:54:39;97395.81;;;4.51;60.38
39411;BME280;26579;43.238;23.124;2023-03-18T02:57:05;97402.63;;;4.52;60.43
39411;BME280;26579;43.238;23.124;2023-03-18T02:59:31;97389.81;;;4.50;60.60
39411;BME280;26579;43.238;23.124;2023-03-18T03:01:58;97377.97;;;4.46;60.37
39411;BME280;26579;43.238;23.124;2023-03-18T03:04:25;97384.44;;;4.38;60.88
39411;BME280;26579;43.238;23.124;2023-03-18T03:06:52;97401.81;;;4.51;61.35
39411;BME280;26579;43.238;23.124;2023-03-18T03:09:29;97390.25;;;4.41;61.66
39411;BME280;26579;43.238;23.124;2023-03-18T03:11:55;97397.53;;;4.50;61.45
39411;BME280;26579;43.238;23.124;2023-03-18T03:14:23;97399.53;;;4.63;60.57
39411;BME280;26579;43.238;23.124;2023-03-18T03:16:52;97385.84;;;4.61;60.31
39411;BME280;26579;43.238;23.124;2023-03-18T03:19:18;97385.03;;;4.60;60.13
39411;BME280;26579;43.238;23.124;2023-03-18T03:21:43;97392.69;;;4.62;60.34
39411;BME280;26579;43.238;23.124;2023-03-18T03:24:09;97394.38;;;4.63;61.64
39411;BME280;26579;43.238;23.124;2023-03-18T03:26:35;97409.22;;;4.75;62.24
39411;BME280;26579;43.238;23.124;2023-03-18T03:29:02;97408.22;;;4.78;61.69
39411;BME280;26579;43.238;23.124;2023-03-18T03:31:28;97412.06;;;4.86;61.05
39411;BME280;26579;43.238;23.124;2023-03-18T03:33:54;97412.66;;;4.91;60.49
39411;BME280;26579;43.238;23.124;2023-03-18T03:36:20;97406.59;;;4.92;60.72
39411;BME280;26579;43.238;23.124;2023-03-18T03:38:47;97393.25;;;4.84;60.27
39411;BME280;26579;43.238;23.124;2023-03-18T03:41:13;97399.19;;;4.86;60.79
39411;BME280;26579;43.238;23.124;2023-03-18T03:43:40;97401.34;;;4.94;61.04
39411;BME280;26579;43.238;23.124;2023-03-18T03:46:07;97389.03;;;4.83;60.83
39411;BME280;26579;43.238;23.124;2023-03-18T03:48:33;97399.53;;;4.96;60.92
39411;BME280;26579;43.238;23.124;2023-03-18T03:50:59;97399.47;;;4.97;61.09
39411;BME280;26579;43.238;23.124;2023-03-18T03:53:25;97405.94;;;5.05;61.11
39411;BME280;26579;43.238;23.124;2023-03-18T03:55:52;97408.53;;;5.05;61.39
39411;BME280;26579;43.238;23.124;2023-03-18T03:58:17;97408.22;;;5.11;60.77
39411;BME280;26579;43.238;23.124;2023-03-18T04:00:45;97409.78;;;4.97;61.15
39411;BME280;26579;43.238;23.124;2023-03-18T04:03:11;97410.28;;;5.04;61.10
39411;BME280;26579;43.238;23.124;2023-03-18T04:05:37;97411.13;;;5.05;60.84
39411;BME280;26579;43.238;23.124;2023-03-18T04:08:04;97405.19;;;5.03;60.92
39411;BME280;26579;43.238;23.124;2023-03-18T04:10:34;97403.53;;;5.02;61.76
39411;BME280;26579;43.238;23.124;2023-03-18T04:13:01;97401.44;;;4.92;62.20
39411;BME280;26579;43.238;23.124;2023-03-18T04:15:26;97411.19;;;5.03;62.48
39411;BME280;26579;43.238;23.124;2023-03-18T04:17:52;97408.47;;;5.06;62.21
39411;BME280;26579;43.238;23.124;2023-03-18T04:20:19;97405.56;;;5.12;61.55
39411;BME280;26579;43.238;23.124;2023-03-18T04:22:46;97411.41;;;5.16;61.14
39411;BME280;26579;43.238;23.124;2023-03-18T04:25:12;97414.75;;;5.18;61.28
39411;BME280;26579;43.238;23.124;2023-03-18T04:27:40;97416.63;;;5.14;61.47
39411;BME280;26579;43.238;23.124;2023-03-18T04:30:09;97410.41;;;5.18;62.98
39411;BME280;26579;43.238;23.124;2023-03-18T04:32:46;97408.00;;;5.15;63.58
39411;BME280;26579;43.238;23.124;2023-03-18T04:35:11;97422.47;;;5.18;62.37
39411;BME280;26579;43.238;23.124;2023-03-18T04:37:37;97413.16;;;5.31;61.43
39411;BME280;26579;43.238;23.124;2023-03-18T04:40:04;97414.50;;;5.38;60.47
39411;BME280;26579;43.238;23.124;2023-03-18T04:42:30;97417.66;;;5.43;60.29
39411;BME280;26579;43.238;23.124;2023-03-18T04:44:56;97413.03;;;5.50;59.67
39411;BME280;26579;43.238;23.124;2023-03-18T04:47:21;97411.44;;;5.48;60.28
39411;BME280;26579;43.238;23.124;2023-03-18T04:49:49;97414.28;;;5.59;60.12
39411;BME280;26579;43.238;23.124;2023-03-18T04:52:15;97401.59;;;5.54;60.68
39411;BME280;26579;43.238;23.124;2023-03-18T04:54:41;97397.53;;;5.50;61.19
39411;BME280;26579;43.238;23.124;2023-03-18T04:57:07;97388.69;;;5.54;60.63
39411;BME280;26579;43.238;23.124;2023-03-18T04:59:37;97407.78;;;5.67;60.18
39411;BME280;26579;43.238;23.124;2023-03-18T05:02:05;97398.09;;;5.55;60.32
39411;BME280;26579;43.238;23.124;2023-03-18T05:04:32;97399.50;;;5.45;61.06
39411;BME280;26579;43.238;23.124;2023-03-18T05:06:58;97404.91;;;5.72;61.00
39411;BME280;26579;43.238;23.124;2023-03-18T05:09:30;97393.09;;;6.74;57.70
39411;BME280;26579;43.238;23.124;2023-03-18T05:11:57;97398.56;;;6.40;58.15
39411;BME280;26579;43.238;23.124;2023-03-18T05:14:33;97405.75;;;6.20;59.27
39411;BME280;26579;43.238;23.124;2023-03-18T05:17:01;97411.16;;;6.16;59.61
39411;BME280;26579;43.238;23.124;2023-03-18T05:19:28;97403.69;;;5.79;61.15
39411;BME280;26579;43.238;23.124;2023-03-18T05:22:01;97417.25;;;5.67;62.50
39411;BME280;26579;43.238;23.124;2023-03-18T05:24:27;97401.69;;;6.61;59.91
39411;BME280;26579;43.238;23.124;2023-03-18T05:26:53;97395.25;;;7.25;57.09
39411;BME280;26579;43.238;23.124;2023-03-18T05:29:22;97409.94;;;8.07;53.86
39411;BME280;26579;43.238;23.124;2023-03-18T05:32:07;97410.88;;;7.79;54.67
39411;BME280;26579;43.238;23.124;2023-03-18T05:34:36;97417.47;;;7.56;55.79
39411;BME280;26579;43.238;23.124;2023-03-18T05:37:05;97420.41;;;9.24;51.00
39411;BME280;26579;43.238;23.124;2023-03-18T05:39:33;97424.81;;;9.97;47.57
39411;BME280;26579;43.238;23.124;2023-03-18T05:42:00;97420.31;;;9.25;49.34
39411;BME280;26579;43.238;23.124;2023-03-18T05:44:27;97431.00;;;8.95;50.39
39411;BME280;26579;43.238;23.124;2023-03-18T05:46:56;97442.22;;;8.70;51.09
39411;BME280;26579;43.238;23.124;2023-03-18T05:49:43;97441.13;;;8.47;50.68
39411;BME280;26579;43.238;23.124;2023-03-18T05:52:22;97428.75;;;8.38;49.76
39411;BME280;26579;43.238;23.124;2023-03-18T05:54:50;97439.41;;;8.06;50.82
39411;BME280;26579;43.238;23.124;2023-03-18T05:57:22;97428.53;;;7.87;50.73
39411;BME280;26579;43.238;23.124;2023-03-18T05:59:51;97440.47;;;7.89;51.07
39411;BME280;26579;43.238;23.124;2023-03-18T06:02:16;97436.72;;;7.66;51.95
39411;BME280;26579;43.238;23.124;2023-03-18T06:04:43;97438.53;;;7.37;52.65
39411;BME280;26579;43.238;23.124;2023-03-18T06:07:09;97435.94;;;7.23;52.99
39411;BME280;26579;43.238;23.124;2023-03-18T06:09:35;97437.13;;;7.03;54.32
39411;BME280;26579;43.238;23.124;2023-03-18T06:12:01;97443.06;;;7.05;54.25
39411;BME280;26579;43.238;23.124;2023-03-18T06:14:27;97440.84;;;6.99;54.38
39411;BME280;26579;43.238;23.124;2023-03-18T06:16:55;97445.06;;;7.00;54.13
39411;BME280;26579;43.238;23.124;2023-03-18T06:19:21;97412.72;;;6.93;53.86
39411;BME280;26579;43.238;23.124;2023-03-18T06:21:47;97444.28;;;7.28;53.81
39411;BME280;26579;43.238;23.124;2023-03-18T06:24:13;97442.44;;;7.86;52.08
39411;BME280;26579;43.238;23.124;2023-03-18T06:26:40;97445.53;;;8.72;49.43
39411;BME280;26579;43.238;23.124;2023-03-18T06:29:07;97439.72;;;9.45;46.78
39411;BME280;26579;43.238;23.124;2023-03-18T06:31:33;97434.19;;;10.48;44.78
39411;BME280;26579;43.238;23.124;2023-03-18T06:33:59;97448.75;;;10.85;43.34
39411;BME280;26579;43.238;23.124;2023-03-18T06:36:25;97445.47;;;11.06;43.47
39411;BME280;26579;43.238;23.124;2023-03-18T06:38:52;97445.25;;;11.43;41.34
39411;BME280;26579;43.238;23.124;2023-03-18T06:41:19;97439.56;;;11.94;41.47
39411;BME280;26579;43.238;23.124;2023-03-18T06:44:08;97430.47;;;12.20;40.25
39411;BME280;26579;43.238;23.124;2023-03-18T06:46:34;97424.91;;;12.46;40.99
39411;BME280;26579;43.238;23.124;2023-03-18T06:49:02;97440.41;;;12.80;39.66
39411;BME280;26579;43.238;23.124;2023-03-18T06:51:31;97437.75;;;13.12;38.96
39411;BME280;26579;43.238;23.124;2023-03-18T06:53:57;97436.16;;;13.51;37.59
39411;BME280;26579;43.238;23.124;2023-03-18T06:56:25;97433.00;;;13.98;36.81
39411;BME280;26579;43.238;23.124;2023-03-18T06:59:08;97416.25;;;13.70;36.31
39411;BME280;26579;43.238;23.124;2023-03-18T07:01:35;97420.88;;;14.07;35.19
39411;BME280;26579;43.238;23.124;2023-03-18T07:04:02;97417.59;;;14.24;34.59
39411;BME280;26579;43.238;23.124;2023-03-18T07:06:29;97414.28;;;14.22;34.31
39411;BME280;26579;43.238;23.124;2023-03-18T07:08:55;97399.84;;;14.57;34.03
39411;BME280;26579;43.238;23.124;2023-03-18T07:11:22;97406.31;;;14.72;34.05
39411;BME280;26579;43.238;23.124;2023-03-18T07:13:48;97406.03;;;14.65;33.77
39411;BME280;26579;43.238;23.124;2023-03-18T07:16:20;97404.88;;;14.97;33.39
39411;BME280;26579;43.238;23.124;2023-03-18T07:18:46;97410.81;;;14.99;32.95
39411;BME280;26579;43.238;23.124;2023-03-18T07:21:12;97408.59;;;14.94;32.85
39411;BME280;26579;43.238;23.124;2023-03-18T07:23:41;97392.78;;;14.77;31.77
39411;BME280;26579;43.238;23.124;2023-03-18T07:26:08;97413.19;;;14.83;32.75
39411;BME280;26579;43.238;23.124;2023-03-18T07:28:34;97419.00;;;14.77;32.74
39411;BME280;26579;43.238;23.124;2023-03-18T07:31:00;97411.94;;;14.77;32.73
39411;BME280;26579;43.238;23.124;2023-03-18T07:33:26;97413.22;;;14.73;31.65
39411;BME280;26579;43.238;23.124;2023-03-18T07:35:52;97412.06;;;14.95;31.09
39411;BME280;26579;43.238;23.124;2023-03-18T07:38:17;97409.56;;;15.03;30.76
39411;BME280;26579;43.238;23.124;2023-03-18T07:40:43;97423.09;;;14.99;30.40
39411;BME280;26579;43.238;23.124;2023-03-18T07:43:09;97424.50;;;14.83;31.26
39411;BME280;26579;43.238;23.124;2023-03-18T07:45:35;97428.66;;;14.37;33.62
39411;BME280;26579;43.238;23.124;2023-03-18T07:48:00;97440.31;;;13.64;36.87
39411;BME280;26579;43.238;23.124;2023-03-18T07:50:26;97445.91;;;12.12;40.39
39411;BME280;26579;43.238;23.124;2023-03-18T07:52:52;97461.63;;;11.78;41.87
39411;BME280;26579;43.238;23.124;2023-03-18T07:55:18;97463.50;;;11.76;42.96
39411;BME280;26579;43.238;23.124;2023-03-18T07:57:44;97450.34;;;11.44;43.24
39411;BME280;26579;43.238;23.124;2023-03-18T08:00:11;97471.56;;;11.73;42.93
39411;BME280;26579;43.238;23.124;2023-03-18T08:02:40;97475.81;;;11.74;42.77
39411;BME280;26579;43.238;23.124;2023-03-18T08:05:07;97484.59;;;11.17;44.06
39411;BME280;26579;43.238;23.124;2023-03-18T08:07:34;97488.13;;;11.27;43.62
39411;BME280;26579;43.238;23.124;2023-03-18T08:10:00;97472.63;;;11.26;42.96
39411;BME280;26579;43.238;23.124;2023-03-18T08:12:26;97477.03;;;10.90;43.97
39411;BME280;26579;43.238;23.124;2023-03-18T08:14:52;97485.66;;;11.37;43.14
39411;BME280;26579;43.238;23.124;2023-03-18T08:17:17;97478.91;;;11.79;42.60
39411;BME280;26579;43.238;23.124;2023-03-18T08:19:43;97486.09;;;12.21;40.60
39411;BME280;26579;43.238;23.124;2023-03-18T08:22:09;97487.06;;;12.20;39.78
39411;BME280;26579;43.238;23.124;2023-03-18T08:24:35;97483.44;;;12.43;40.38
39411;BME280;26579;43.238;23.124;2023-03-18T08:27:02;97484.50;;;11.97;40.54
39411;BME280;26579;43.238;23.124;2023-03-18T08:29:27;97493.38;;;11.95;40.18
39411;BME280;26579;43.238;23.124;2023-03-18T08:31:53;97479.16;;;11.76;40.19
39411;BME280;26579;43.238;23.124;2023-03-18T08:34:19;97501.81;;;12.42;38.59
39411;BME280;26579;43.238;23.124;2023-03-18T08:36:45;97496.00;;;13.24;38.37
39411;BME280;26579;43.238;23.124;2023-03-18T08:39:10;97497.88;;;13.94;36.67
39411;BME280;26579;43.238;23.124;2023-03-18T08:41:36;97492.31;;;13.78;35.45
39411;BME280;26579;43.238;23.124;2023-03-18T08:44:03;97499.97;;;14.10;35.79
39411;BME280;26579;43.238;23.124;2023-03-18T08:46:28;97492.81;;;14.02;35.93
39411;BME280;26579;43.238;23.124;2023-03-18T08:48:54;97486.41;;;13.86;36.73
39411;BME280;26579;43.238;23.124;2023-03-18T08:51:20;97478.22;;;14.10;34.72
39411;BME280;26579;43.238;23.124;2023-03-18T08:53:46;97489.22;;;14.13;35.27
39411;BME280;26579;43.238;23.124;2023-03-18T08:56:12;97498.03;;;14.62;34.75
39411;BME280;26579;43.238;23.124;2023-03-18T08:58:37;97513.06;;;14.00;34.82
39411;BME280;26579;43.238;23.124;2023-03-18T09:01:03;97504.84;;;13.84;35.23
39411;BME280;26579;43.238;23.124;2023-03-18T09:03:29;97519.66;;;12.80;37.17
39411;BME280;26579;43.238;23.124;2023-03-18T09:05:54;97523.75;;;12.51;38.86
39411;BME280;26579;43.238;23.124;2023-03-18T09:08:20;97516.88;;;11.61;38.93
39411;BME280;26579;43.238;23.124;2023-03-18T09:10:47;97531.13;;;11.22;39.83
39411;BME280;26579;43.238;23.124;2023-03-18T09:13:15;97514.19;;;10.81;40.16
39411;BME280;26579;43.238;23.124;2023-03-18T09:15:41;97521.91;;;10.82;40.69
39411;BME280;26579;43.238;23.124;2023-03-18T09:18:06;97533.03;;;10.84;41.18
39411;BME280;26579;43.238;23.124;2023-03-18T09:20:32;97507.84;;;11.65;39.72
39411;BME280;26579;43.238;23.124;2023-03-18T09:22:58;97524.16;;;11.33;39.02
39411;BME280;26579;43.238;23.124;2023-03-18T09:25:25;97503.91;;;10.55;39.67
39411;BME280;26579;43.238;23.124;2023-03-18T09:27:51;97529.28;;;10.04;40.88
39411;BME280;26579;43.238;23.124;2023-03-18T09:30:17;97515.41;;;9.66;41.81
39411;BME280;26579;43.238;23.124;2023-03-18T09:32:44;97528.88;;;9.84;41.82
39411;BME280;26579;43.238;23.124;2023-03-18T09:35:11;97528.88;;;9.84;42.24
39411;BME280;26579;43.238;23.124;2023-03-18T09:37:37;97522.25;;;10.17;41.29
39411;BME280;26579;43.238;23.124;2023-03-18T09:40:04;97516.72;;;10.94;38.88
39411;BME280;26579;43.238;23.124;2023-03-18T09:45:30;97530.09;;;11.36;38.84
39411;BME280;26579;43.238;23.124;2023-03-18T09:48:33;97522.81;;;11.17;39.56
39411;BME280;26579;43.238;23.124;2023-03-18T09:53:40;97528.06;;;10.33;41.22
39411;BME280;26579;43.238;23.124;2023-03-18T09:56:14;97532.59;;;10.06;43.16
39411;BME280;26579;43.238;23.124;2023-03-18T10:01:36;97535.69;;;9.48;44.99
39411;BME280;26579;43.238;23.124;2023-03-18T10:04:16;97521.41;;;9.16;45.45
39411;BME280;26579;43.238;23.124;2023-03-18T10:06:46;97531.78;;;9.03;45.33
39411;BME280;26579;43.238;23.124;2023-03-18T10:09:18;97548.25;;;8.76;45.72
39411;BME280;26579;43.238;23.124;2023-03-18T10:11:47;97529.25;;;8.76;45.74
39411;BME280;26579;43.238;23.124;2023-03-18T10:17:01;97547.50;;;8.74;46.25
39411;BME280;26579;43.238;23.124;2023-03-18T10:19:31;97550.88;;;8.89;44.96
39411;BME280;26579;43.238;23.124;2023-03-18T10:22:26;97545.53;;;9.05;45.51
39411;BME280;26579;43.238;23.124;2023-03-18T10:30:56;97526.16;;;9.98;41.98
39411;BME280;26579;43.238;23.124;2023-03-18T10:33:34;97536.72;;;9.59;40.88
39411;BME280;26579;43.238;23.124;2023-03-18T10:36:07;97532.88;;;9.26;40.89
39411;BME280;26579;43.238;23.124;2023-03-18T10:38:38;97533.63;;;8.88;41.81
39411;BME280;26579;43.238;23.124;2023-03-18T10:41:24;97525.19;;;8.72;42.27
39411;BME280;26579;43.238;23.124;2023-03-18T10:43:54;97532.28;;;8.95;41.81
39411;BME280;26579;43.238;23.124;2023-03-18T10:46:23;97511.22;;;9.13;42.13
39411;BME280;26579;43.238;23.124;2023-03-18T10:49:11;97511.75;;;9.18;41.35
39411;BME280;26579;43.238;23.124;2023-03-18T10:54:46;97507.69;;;9.39;40.95
39411;BME280;26579;43.238;23.124;2023-03-18T10:57:16;97517.88;;;9.81;39.38
39411;BME280;26579;43.238;23.124;2023-03-18T10:59:42;97530.03;;;9.93;39.47
39411;BME280;26579;43.238;23.124;2023-03-18T11:04:53;97496.94;;;9.95;39.15
39411;BME280;26579;43.238;23.124;2023-03-18T11:07:27;97519.00;;;10.26;38.62
39411;BME280;26579;43.238;23.124;2023-03-18T11:09:53;97506.06;;;10.37;38.11
39411;BME280;26579;43.238;23.124;2023-03-18T11:12:27;97520.09;;;10.72;37.70
39411;BME280;26579;43.238;23.124;2023-03-18T11:14:53;97501.53;;;10.76;37.34
39411;BME280;26579;43.238;23.124;2023-03-18T11:17:30;97512.00;;;10.99;36.87
39411;BME280;26579;43.238;23.124;2023-03-18T11:22:30;97513.91;;;11.08;35.90
39411;BME280;26579;43.238;23.124;2023-03-18T11:25:17;97511.03;;;11.57;36.29
39411;BME280;26579;43.238;23.124;2023-03-18T11:27:45;97499.19;;;11.65;34.92
39411;BME280;26579;43.238;23.124;2023-03-18T11:30:24;97503.69;;;11.51;34.69
39411;BME280;26579;43.238;23.124;2023-03-18T11:32:56;97491.94;;;11.46;34.33
39411;BME280;26579;43.238;23.124;2023-03-18T11:38:03;97491.34;;;11.42;35.08
39411;BME280;26579;43.238;23.124;2023-03-18T11:40:29;97488.13;;;11.27;34.75
39411;BME280;26579;43.238;23.124;2023-03-18T11:43:02;97498.69;;;11.26;33.90
39411;BME280;26579;43.238;23.124;2023-03-18T11:45:35;97471.44;;;11.19;35.02
39411;BME280;26579;43.238;23.124;2023-03-18T11:53:33;97480.03;;;11.08;35.74
39411;BME280;26579;43.238;23.124;2023-03-18T11:56:15;97480.78;;;11.21;36.56
39411;BME280;26579;43.238;23.124;2023-03-18T11:58:51;97477.47;;;11.30;36.00
39411;BME280;26579;43.238;23.124;2023-03-18T12:09:56;97465.16;;;11.77;32.67
39411;BME280;26579;43.238;23.124;2023-03-18T12:15:10;97464.34;;;12.43;31.54
39411;BME280;26579;43.238;23.124;2023-03-18T12:17:58;97443.41;;;12.22;32.35
39411;BME280;26579;43.238;23.124;2023-03-18T12:20:36;97457.88;;;12.26;33.55
39411;BME280;26579;43.238;23.124;2023-03-18T12:25:50;97472.53;;;11.61;31.98
39411;BME280;26579;43.238;23.124;2023-03-18T12:28:46;97476.53;;;11.65;33.12
39411;BME280;26579;43.238;23.124;2023-03-18T12:33:52;97471.16;;;11.10;32.80
39411;BME280;26579;43.238;23.124;2023-03-18T12:39:51;97481.16;;;11.50;32.54
39411;BME280;26579;43.238;23.124;2023-03-18T12:42:28;97475.00;;;11.96;31.67
39411;BME280;26579;43.238;23.124;2023-03-18T12:45:02;97477.88;;;11.93;32.81
39411;BME280;26579;43.238;23.124;2023-03-18T12:47:41;97478.66;;;12.16;31.81
39411;BME280;26579;43.238;23.124;2023-03-18T12:52:52;97484.72;;;12.06;29.73
39411;BME280;26579;43.238;23.124;2023-03-18T12:55:23;97476.53;;;12.10;30.72
39411;BME280;26579;43.238;23.124;2023-03-18T12:58:10;97471.50;;;12.18;30.46
39411;BME280;26579;43.238;23.124;2023-03-18T13:01:20;97481.09;;;12.29;30.46
39411;BME280;26579;43.238;23.124;2023-03-18T13:03:40;97471.69;;;12.06;30.36
39411;BME280;26579;43.238;23.124;2023-03-18T13:06:17;97468.00;;;11.74;30.57
39411;BME280;26579;43.238;23.124;2023-03-18T13:12:00;97485.22;;;11.43;30.68
39411;BME280;26579;43.238;23.124;2023-03-18T13:14:34;97474.31;;;11.49;30.31
39411;BME280;26579;43.238;23.124;2023-03-18T13:17:04;97467.28;;;11.84;30.46
39411;BME280;26579;43.238;23.124;2023-03-18T13:19:34;97457.31;;;12.00;31.13
39411;BME280;26579;43.238;23.124;2023-03-18T13:47:01;97468.50;;;11.35;33.33
39411;BME280;26579;43.238;23.124;2023-03-18T13:49:30;97459.00;;;11.67;33.60
39411;BME280;26579;43.238;23.124;2023-03-18T13:51:59;97460.88;;;12.10;32.50
39411;BME280;26579;43.238;23.124;2023-03-18T13:54:35;97454.09;;;12.51;31.17
39411;BME280;26579;43.238;23.124;2023-03-18T13:57:32;97465.44;;;12.61;30.64
39411;BME280;26579;43.238;23.124;2023-03-18T14:00:28;97459.41;;;12.61;29.82
39411;BME280;26579;43.238;23.124;2023-03-18T14:03:15;97467.13;;;12.83;29.94
39411;BME280;26579;43.238;23.124;2023-03-18T14:05:42;97459.34;;;12.93;30.00
39411;BME280;26579;43.238;23.124;2023-03-18T14:14:04;97450.59;;;12.62;30.54
39411;BME280;26579;43.238;23.124;2023-03-18T14:16:51;97456.31;;;12.56;30.04
39411;BME280;26579;43.238;23.124;2023-03-18T14:19:22;97454.78;;;12.53;30.00
39411;BME280;26579;43.238;23.124;2023-03-18T14:22:04;97450.03;;;12.58;30.51
39411;BME280;26579;43.238;23.124;2023-03-18T14:24:30;97455.78;;;12.73;38.22
39411;BME280;26579;43.238;23.124;2023-03-18T14:29:28;97456.84;;;12.71;32.24
39411;BME280;26579;43.238;23.124;2023-03-18T14:32:00;97454.91;;;12.19;31.00
39411;BME280;26579;43.238;23.124;2023-03-18T14:34:52;97465.78;;;12.36;30.98
39411;BME280;26579;43.238;23.124;2023-03-18T14:37:26;97456.13;;;12.48;31.02
39411;BME280;26579;43.238;23.124;2023-03-18T14:39:55;97464.44;;;12.74;30.14
39411;BME280;26579;43.238;23.124;2023-03-18T14:42:34;97467.56;;;12.88;29.82